createdAt,value
2023-01-09T00:02:26.405Z,4.93
2023-01-09T00:04:54.979Z,5.27
2023-01-09T00:07:23.448Z,4.67
2023-01-09T00:09:52.066Z,5.10
2023-01-09T00:12:21.066Z,6.93
2023-01-09T00:14:49.559Z,4.57
2023-01-09T00:17:18.207Z,4.70
2023-01-09T00:19:48.125Z,4.80
2023-01-09T00:22:16.640Z,4.53
2023-01-09T00:24:45.227Z,4.67
2023-01-09T00:27:14.567Z,4.70
2023-01-09T00:29:44.872Z,4.77
2023-01-09T00:32:13.704Z,4.87
2023-01-09T00:34:43.364Z,4.23
2023-01-09T00:37:13.259Z,4.17
2023-01-09T00:39:42.182Z,5.30
2023-01-09T00:42:13.979Z,4.50
2023-01-09T00:44:44.162Z,4.10
2023-01-09T00:47:14.952Z,4.50
2023-01-09T00:49:44.464Z,4.83
2023-01-09T00:52:15.183Z,4.70
2023-01-09T00:54:44.441Z,4.30
2023-01-09T00:57:13.835Z,4.23
2023-01-09T00:59:42.492Z,4.60
2023-01-09T01:02:11.414Z,4.43
2023-01-09T01:04:57.851Z,4.30
2023-01-09T01:07:39.898Z,4.53
2023-01-09T01:10:10.601Z,4.30
2023-01-09T01:12:39.466Z,4.60
2023-01-09T01:15:08.675Z,4.30
2023-01-09T01:17:37.828Z,4.73
2023-01-09T01:20:06.955Z,4.57
2023-01-09T01:22:36.842Z,4.43
2023-01-09T01:25:05.641Z,4.60
2023-01-09T01:27:34.191Z,4.47
2023-01-09T01:30:02.684Z,4.30
2023-01-09T01:32:31.479Z,4.57
2023-01-09T01:34:59.952Z,4.47
2023-01-09T01:37:29.718Z,4.60
2023-01-09T01:39:59.992Z,4.23
2023-01-09T01:42:28.608Z,4.27
2023-01-09T01:44:59.163Z,4.40
2023-01-09T01:47:31.121Z,4.23
2023-01-09T01:49:59.861Z,4.30
2023-01-09T01:52:29.562Z,4.30
2023-01-09T01:54:59.660Z,4.30
2023-01-09T01:57:28.191Z,4.13
2023-01-09T02:00:00.072Z,4.17
2023-01-09T02:02:31.190Z,4.27
2023-01-09T02:05:00.927Z,4.20
2023-01-09T02:07:30.054Z,4.03
2023-01-09T02:10:00.644Z,4.20
2023-01-09T02:12:29.718Z,4.50
2023-01-09T02:15:00.846Z,4.23
2023-01-09T02:17:36.855Z,3.87
2023-01-09T02:20:29.103Z,3.90
2023-01-09T02:23:02.749Z,3.93
2023-01-09T02:25:44.064Z,3.90
2023-01-09T02:28:28.823Z,3.60
2023-01-09T02:30:59.918Z,4.17
2023-01-09T02:33:36.594Z,3.83
2023-01-09T02:36:13.971Z,3.63
2023-01-09T02:38:47.299Z,4.07
2023-01-09T02:41:19.114Z,3.73
2023-01-09T02:43:47.717Z,3.83
2023-01-09T02:46:21.227Z,3.80
2023-01-09T02:48:51.931Z,3.83
2023-01-09T02:51:25.636Z,4.27
2023-01-09T02:53:59.993Z,3.93
2023-01-09T02:56:33.746Z,4.30
2023-01-09T02:59:08.155Z,3.90
2023-01-09T03:01:46.613Z,4.03
2023-01-09T03:04:19.194Z,4.13
2023-01-09T03:06:49.489Z,3.83
2023-01-09T03:09:20.339Z,3.53
2023-01-09T03:11:50.099Z,4.07
2023-01-09T03:14:19.971Z,3.80
2023-01-09T03:16:51.732Z,3.97
2023-01-09T03:19:21.993Z,3.73
2023-01-09T03:21:50.996Z,4.23
2023-01-09T03:24:19.522Z,4.20
2023-01-09T03:26:48.360Z,4.57
2023-01-09T03:29:16.879Z,4.10
2023-01-09T03:31:45.368Z,3.80
2023-01-09T03:34:15.432Z,4.10
2023-01-09T03:36:43.961Z,4.20
2023-01-09T03:39:12.433Z,4.27
2023-01-09T03:41:41.223Z,4.07
2023-01-09T03:44:09.706Z,5.23
2023-01-09T03:46:38.186Z,4.63
2023-01-09T03:49:06.873Z,3.97
2023-01-09T03:51:36.754Z,5.13
2023-01-09T03:54:05.293Z,4.20
2023-01-09T03:56:33.971Z,4.40
2023-01-09T03:59:02.448Z,4.27
2023-01-09T04:01:31.142Z,4.20
2023-01-09T04:03:59.987Z,4.23
2023-01-09T04:06:28.524Z,4.37
2023-01-09T04:08:58.389Z,4.43
2023-01-09T04:11:27.290Z,4.23
2023-01-09T04:13:55.762Z,3.83
2023-01-09T04:16:24.327Z,3.73
2023-01-09T04:18:53.030Z,3.87
2023-01-09T04:21:21.494Z,4.07
2023-01-09T04:23:49.977Z,3.70
2023-01-09T04:26:20.055Z,3.87
2023-01-09T04:28:48.520Z,3.47
2023-01-09T04:31:18.322Z,3.10
2023-01-09T04:33:47.280Z,4.10
2023-01-09T04:36:15.815Z,3.37
2023-01-09T04:38:44.296Z,3.60
2023-01-09T04:41:33.320Z,4.47
2023-01-09T04:44:03.179Z,3.47
2023-01-09T04:46:31.875Z,3.63
2023-01-09T04:49:00.419Z,3.70
2023-01-09T04:51:28.883Z,3.37
2023-01-09T04:53:57.457Z,3.27
2023-01-09T04:56:26.053Z,3.50
2023-01-09T04:58:54.568Z,4.40
2023-01-09T05:01:24.725Z,3.73
2023-01-09T05:03:53.354Z,4.10
2023-01-09T05:06:21.888Z,5.83
2023-01-09T05:08:50.460Z,6.23
2023-01-09T05:11:19.104Z,9.57
2023-01-09T05:13:47.682Z,3.30
2023-01-09T05:16:17.727Z,3.60
2023-01-09T05:18:47.788Z,3.67
2023-01-09T05:21:16.416Z,3.70
2023-01-09T05:23:44.912Z,3.87
2023-01-09T05:26:13.622Z,3.63
2023-01-09T05:28:42.210Z,3.50
2023-01-09T05:31:10.695Z,3.40
2023-01-09T05:33:39.306Z,4.20
2023-01-09T05:36:09.744Z,3.63
2023-01-09T05:38:39.020Z,3.93
2023-01-09T05:41:07.742Z,3.70
2023-01-09T05:43:36.481Z,4.07
2023-01-09T05:46:05.044Z,10.03
2023-01-09T05:48:33.606Z,4.00
2023-01-09T05:51:02.180Z,3.63
2023-01-09T05:53:32.052Z,4.10
2023-01-09T05:56:00.638Z,4.00
2023-01-09T05:58:29.422Z,3.97
2023-01-09T06:00:57.926Z,6.30
2023-01-09T06:03:26.599Z,4.33
2023-01-09T06:05:55.124Z,4.17
2023-01-09T06:08:23.586Z,4.87
2023-01-09T06:10:53.568Z,4.50
2023-01-09T06:13:22.245Z,3.97
2023-01-09T06:15:50.794Z,6.83
2023-01-09T06:18:19.413Z,4.10
2023-01-09T06:20:48.005Z,3.67
2023-01-09T06:23:16.497Z,5.00
2023-01-09T06:25:45.101Z,3.40
2023-01-09T06:28:15.155Z,4.33
2023-01-09T06:30:43.624Z,4.20
2023-01-09T06:33:12.178Z,4.30
2023-01-09T06:35:40.778Z,4.83
2023-01-09T06:38:09.452Z,5.47
2023-01-09T06:40:38.029Z,3.87
2023-01-09T06:43:06.515Z,4.37
2023-01-09T06:45:36.550Z,7.80
2023-01-09T06:48:05.135Z,5.70
2023-01-09T06:50:34.096Z,4.30
2023-01-09T06:53:02.781Z,3.70
2023-01-09T06:55:31.389Z,3.90
2023-01-09T06:57:59.861Z,3.87
2023-01-09T07:00:29.566Z,4.20
2023-01-09T07:02:59.618Z,3.80
2023-01-09T07:05:28.122Z,4.07
2023-01-09T07:07:57.052Z,4.00
2023-01-09T07:10:25.821Z,3.93
2023-01-09T07:12:54.278Z,3.63
2023-01-09T07:15:22.894Z,4.00
2023-01-09T07:17:52.887Z,4.27
2023-01-09T07:20:23.083Z,4.43
2023-01-09T07:22:51.632Z,4.10
2023-01-09T07:25:20.347Z,4.20
2023-01-09T07:27:48.819Z,4.40
2023-01-09T07:30:17.629Z,4.53
2023-01-09T07:32:46.288Z,4.10
2023-01-09T07:35:14.776Z,4.43
2023-01-09T07:37:44.707Z,4.20
2023-01-09T07:40:13.642Z,4.27
2023-01-09T07:42:42.112Z,4.43
2023-01-09T07:45:10.964Z,4.20
2023-01-09T07:47:41.369Z,3.97
2023-01-09T07:50:10.787Z,4.13
2023-01-09T07:52:39.470Z,4.10
2023-01-09T07:55:10.629Z,3.83
2023-01-09T07:57:39.104Z,4.40
2023-01-09T08:00:10.972Z,4.03
2023-01-09T08:02:39.621Z,3.90
2023-01-09T08:05:08.971Z,4.00
2023-01-09T08:07:37.496Z,4.07
2023-01-09T08:10:06.351Z,3.93
2023-01-09T08:12:36.215Z,3.97
2023-01-09T08:15:04.917Z,4.37
2023-01-09T08:17:33.526Z,3.67
2023-01-09T08:20:01.991Z,4.20
2023-01-09T08:22:30.571Z,4.00
2023-01-09T08:24:59.231Z,3.70
2023-01-09T08:27:27.720Z,4.07
2023-01-09T08:29:57.625Z,4.27
2023-01-09T08:32:26.417Z,4.37
2023-01-09T08:34:54.922Z,4.37
2023-01-09T08:37:23.429Z,4.03
2023-01-09T08:39:53.366Z,4.43
2023-01-09T08:42:39.318Z,4.20
2023-01-09T08:45:28.644Z,4.33
2023-01-09T08:47:57.195Z,4.53
2023-01-09T08:50:25.830Z,4.23
2023-01-09T08:52:54.439Z,4.50
2023-01-09T08:55:22.914Z,4.20
2023-01-09T08:57:51.709Z,4.57
2023-01-09T09:00:24.215Z,4.00
2023-01-09T09:02:53.849Z,4.13
2023-01-09T09:05:22.759Z,3.53
2023-01-09T09:07:51.724Z,3.63
2023-01-09T09:10:20.402Z,3.17
2023-01-09T09:12:50.279Z,3.63
2023-01-09T09:15:24.258Z,3.63
2023-01-09T09:17:54.925Z,3.43
2023-01-09T09:20:23.851Z,3.03
2023-01-09T09:22:52.697Z,3.70
2023-01-09T09:25:21.388Z,3.73
2023-01-09T09:27:50.240Z,3.83
2023-01-09T09:30:20.871Z,3.67
2023-01-09T09:32:49.686Z,3.63
2023-01-09T09:35:21.099Z,3.50
2023-01-09T09:37:55.455Z,3.27
2023-01-09T09:40:29.748Z,2.93
2023-01-09T09:43:29.892Z,3.13
2023-01-09T09:46:01.542Z,2.90
2023-01-09T09:48:35.205Z,3.00
2023-01-09T09:51:18.779Z,3.17
2023-01-09T09:53:50.524Z,2.90
2023-01-09T09:56:20.747Z,2.90
2023-01-09T09:58:51.602Z,2.73
2023-01-09T10:01:21.791Z,2.73
2023-01-09T10:03:52.585Z,3.03
2023-01-09T10:06:28.512Z,2.50
2023-01-09T10:09:03.028Z,2.83
2023-01-09T10:11:35.964Z,2.40
2023-01-09T10:14:22.836Z,2.43
2023-01-09T10:16:58.125Z,2.20
2023-01-09T10:19:36.996Z,2.20
2023-01-09T10:22:12.190Z,2.20
2023-01-09T10:24:46.294Z,2.60
2023-01-09T10:27:19.118Z,2.00
2023-01-09T10:29:55.563Z,2.20
2023-01-09T10:32:32.620Z,2.00
2023-01-09T10:35:06.261Z,1.87
2023-01-09T10:37:38.330Z,1.83
2023-01-09T10:40:09.822Z,1.87
2023-01-09T10:42:41.084Z,1.90
2023-01-09T10:45:18.001Z,1.80
2023-01-09T10:47:47.055Z,1.87
2023-01-09T10:50:20.080Z,1.60
2023-01-09T10:52:51.351Z,1.80
2023-01-09T10:55:20.728Z,1.53
2023-01-09T10:57:50.983Z,1.60
2023-01-09T11:00:23.220Z,2.17
2023-01-09T11:02:52.302Z,1.90
2023-01-09T11:05:21.882Z,1.97
2023-01-09T11:07:53.562Z,2.17
2023-01-09T11:10:25.017Z,2.27
2023-01-09T11:13:13.616Z,1.90
2023-01-09T11:15:42.457Z,2.20
2023-01-09T11:18:21.831Z,2.30
2023-01-09T11:20:50.427Z,2.30
2023-01-09T11:23:27.078Z,2.30
2023-01-09T11:25:56.239Z,2.57
2023-01-09T11:28:24.764Z,2.67
2023-01-09T11:30:55.048Z,2.57
2023-01-09T11:33:25.001Z,2.53
2023-01-09T11:36:01.516Z,2.60
2023-01-09T11:38:32.329Z,2.97
2023-01-09T11:41:02.346Z,3.07
2023-01-09T11:43:35.385Z,3.47
2023-01-09T11:46:05.734Z,2.93
2023-01-09T11:48:35.733Z,3.07
2023-01-09T11:51:05.874Z,3.70
2023-01-09T11:53:47.637Z,3.50
2023-01-09T11:56:16.595Z,3.47
2023-01-09T11:58:45.094Z,3.30
2023-01-09T12:01:28.459Z,3.90
2023-01-09T12:04:05.912Z,3.73
2023-01-09T12:06:36.941Z,3.40
2023-01-09T12:09:07.992Z,3.40
2023-01-09T12:11:40.227Z,3.37
2023-01-09T12:14:18.137Z,3.60
2023-01-09T12:16:52.189Z,3.87
2023-01-09T12:19:37.884Z,4.33
2023-01-09T12:22:12.413Z,3.77
2023-01-09T12:24:55.720Z,3.53
2023-01-09T12:27:30.447Z,3.37
2023-01-09T12:30:04.867Z,3.53
2023-01-09T12:32:39.338Z,3.53
2023-01-09T12:35:14.447Z,3.10
2023-01-09T12:37:53.552Z,3.70
2023-01-09T12:40:30.951Z,3.30
2023-01-09T12:43:04.687Z,3.50
2023-01-09T12:45:40.346Z,3.57
2023-01-09T12:48:14.627Z,3.30
2023-01-09T12:50:50.610Z,3.10
2023-01-09T12:53:22.790Z,3.50
2023-01-09T12:55:54.559Z,3.53
2023-01-09T12:58:31.627Z,3.00
2023-01-09T13:01:00.804Z,3.20
2023-01-09T13:03:32.431Z,3.23
2023-01-09T13:06:04.044Z,3.57
2023-01-09T13:08:34.071Z,3.10
2023-01-09T13:11:18.895Z,3.27
2023-01-09T13:13:52.026Z,3.30
2023-01-09T13:16:22.177Z,3.43
2023-01-09T13:18:53.789Z,4.10
2023-01-09T13:21:22.716Z,3.10
2023-01-09T13:23:54.524Z,3.13
2023-01-09T13:26:24.747Z,3.20
2023-01-09T13:28:57.227Z,3.03
2023-01-09T13:31:46.596Z,3.10
2023-01-09T13:34:21.866Z,3.03
2023-01-09T13:36:52.337Z,4.47
2023-01-09T13:39:24.841Z,5.07
2023-01-09T13:42:12.504Z,3.63
2023-01-09T13:44:42.767Z,3.27
2023-01-09T13:47:17.831Z,2.70
2023-01-09T13:50:05.033Z,4.77
2023-01-09T13:52:37.922Z,3.17
2023-01-09T13:55:23.810Z,3.10
2023-01-09T13:58:15.045Z,2.70
2023-01-09T14:01:04.789Z,2.40
2023-01-09T14:03:38.841Z,3.00
2023-01-09T14:06:12.092Z,2.60
2023-01-09T14:08:41.926Z,2.80
2023-01-09T14:11:10.673Z,2.90
2023-01-09T14:13:41.732Z,2.80
2023-01-09T14:16:16.867Z,3.07
2023-01-09T14:18:50.540Z,2.90
2023-01-09T14:21:22.042Z,3.20
2023-01-09T14:23:55.292Z,3.20
2023-01-09T14:26:26.680Z,2.80
2023-01-09T14:29:15.390Z,2.80
2023-01-09T14:31:45.303Z,2.90
2023-01-09T14:34:31.239Z,2.83
2023-01-09T14:37:01.478Z,2.90
2023-01-09T14:39:32.052Z,3.23
2023-01-09T14:42:06.267Z,3.23
2023-01-09T14:44:37.735Z,4.10
2023-01-09T14:47:12.641Z,4.97
2023-01-09T14:49:43.086Z,3.73
2023-01-09T14:52:15.168Z,3.00
2023-01-09T14:54:45.820Z,3.00
2023-01-09T14:57:27.617Z,2.93
2023-01-09T15:00:00.214Z,3.40
2023-01-09T15:02:32.311Z,3.20
2023-01-09T15:05:02.711Z,3.07
2023-01-09T15:07:34.858Z,2.77
2023-01-09T15:10:04.298Z,3.27
2023-01-09T15:12:33.529Z,3.37
2023-01-09T15:15:03.262Z,3.37
2023-01-09T15:17:34.275Z,3.53
2023-01-09T15:20:06.133Z,3.17
2023-01-09T15:22:35.367Z,3.40
2023-01-09T15:25:18.062Z,3.60
2023-01-09T15:27:51.044Z,3.53
2023-01-09T15:30:20.500Z,3.43
2023-01-09T15:32:51.447Z,3.40
2023-01-09T15:35:20.358Z,4.20
2023-01-09T15:37:49.019Z,3.60
2023-01-09T15:40:22.168Z,3.73
2023-01-09T15:42:58.382Z,3.80
2023-01-09T15:45:32.508Z,3.40
2023-01-09T16:01:31.825Z,3.67
2023-01-09T16:04:05.846Z,3.20
2023-01-09T16:06:35.799Z,2.97
2023-01-09T16:09:06.117Z,3.47
2023-01-09T16:11:35.658Z,3.13
2023-01-09T16:14:13.664Z,3.43
2023-01-09T16:16:43.662Z,3.00
2023-01-09T16:19:31.025Z,3.20
2023-01-09T16:21:59.848Z,3.10
2023-01-09T16:24:29.396Z,3.60
2023-01-09T16:27:12.815Z,3.10
2023-01-09T16:29:46.864Z,3.00
2023-01-09T16:32:19.947Z,3.40
2023-01-09T16:34:51.866Z,3.70
2023-01-09T16:37:20.583Z,3.27
2023-01-09T16:40:11.092Z,3.63
2023-01-09T16:42:57.081Z,3.03
2023-01-09T16:45:27.085Z,3.00
2023-01-09T16:47:58.280Z,3.00
2023-01-09T16:50:27.035Z,5.07
2023-01-09T16:52:55.535Z,14.57
2023-01-09T16:55:24.346Z,4.70
2023-01-09T16:57:53.145Z,4.00
2023-01-09T17:00:22.556Z,4.87
2023-01-09T17:02:51.155Z,3.83
2023-01-09T17:05:21.015Z,3.13
2023-01-09T17:07:49.731Z,4.00
2023-01-09T17:10:22.405Z,3.97
2023-01-09T17:12:50.947Z,3.23
2023-01-09T17:15:19.557Z,3.67
2023-01-09T17:17:48.087Z,3.20
2023-01-09T17:20:21.354Z,3.37
2023-01-09T17:22:49.956Z,3.57
2023-01-09T17:25:36.112Z,2.83
2023-01-09T17:28:22.782Z,2.57
2023-01-09T17:30:51.251Z,3.10
2023-01-09T17:33:22.761Z,4.50
2023-01-09T17:35:52.744Z,3.70
2023-01-09T17:38:21.407Z,3.20
2023-01-09T17:40:49.911Z,2.73
2023-01-09T17:43:19.051Z,17.80
2023-01-09T17:45:47.745Z,17.00
2023-01-09T17:48:17.592Z,11.13
2023-01-09T17:50:46.489Z,14.67
2023-01-09T17:53:17.814Z,12.43
2023-01-09T17:55:46.325Z,17.30
2023-01-09T17:58:25.628Z,14.97
2023-01-09T18:00:54.528Z,27.97
2023-01-09T18:03:26.011Z,24.57
2023-01-09T18:05:54.811Z,30.27
2023-01-09T18:08:24.831Z,5.33
2023-01-09T18:10:53.374Z,29.30
2023-01-09T18:13:21.973Z,14.63
2023-01-09T18:15:50.560Z,6.33
2023-01-09T18:18:20.067Z,18.50
2023-01-09T18:20:48.659Z,7.57
2023-01-09T18:23:18.376Z,10.97
2023-01-09T18:25:48.704Z,4.30
2023-01-09T18:28:18.803Z,5.37
2023-01-09T18:30:47.998Z,3.90
2023-01-09T18:33:17.532Z,9.43
2023-01-09T18:35:46.706Z,1.30
2023-01-09T18:38:15.661Z,3.37
2023-01-09T18:40:44.540Z,3.10
2023-01-09T18:43:15.670Z,5.07
2023-01-09T18:45:44.186Z,2.60
2023-01-09T18:48:13.518Z,4.17
2023-01-09T18:50:42.056Z,6.23
2023-01-09T18:53:10.531Z,40.60
2023-01-09T18:55:39.475Z,39.70
2023-01-09T18:58:08.241Z,38.33
2023-01-09T19:00:38.176Z,15.47
2023-01-09T19:03:06.805Z,14.40
2023-01-09T19:05:35.710Z,17.63
2023-01-09T19:08:04.177Z,28.43
2023-01-09T19:10:32.709Z,5.03
2023-01-09T19:13:01.239Z,2.00
2023-01-09T19:15:30.065Z,1.50
2023-01-09T19:18:00.121Z,1.33
2023-01-09T19:20:29.936Z,1.20
2023-01-09T19:22:58.599Z,1.30
2023-01-09T19:25:27.322Z,1.20
2023-01-09T19:28:00.036Z,1.20
2023-01-09T19:30:28.623Z,1.40
2023-01-09T19:32:57.091Z,1.40
2023-01-09T19:35:27.283Z,1.20
2023-01-09T19:37:55.832Z,1.30
2023-01-09T19:40:25.618Z,1.13
2023-01-09T19:42:55.059Z,1.20
2023-01-09T19:45:24.266Z,1.20
2023-01-09T19:47:52.759Z,1.37
2023-01-09T19:50:22.134Z,1.10
2023-01-09T19:52:52.113Z,1.10
2023-01-09T19:55:20.637Z,1.07
2023-01-09T19:57:49.178Z,1.03
2023-01-09T20:00:18.240Z,1.37
2023-01-09T20:02:46.715Z,1.03
2023-01-09T20:05:15.333Z,1.00
2023-01-09T20:07:43.875Z,2.27
2023-01-09T20:10:14.208Z,3.80
2023-01-09T20:12:45.361Z,1.00
2023-01-09T20:15:14.929Z,1.30
2023-01-09T20:17:43.480Z,1.00
2023-01-09T20:20:12.505Z,1.00
2023-01-09T20:22:41.054Z,1.00
2023-01-09T20:25:10.533Z,3.33
2023-01-09T20:27:40.381Z,1.00
2023-01-09T20:30:09.617Z,1.07
2023-01-09T20:32:38.473Z,1.00
2023-01-09T20:35:07.308Z,0.83
2023-01-09T20:37:35.847Z,0.90
2023-01-09T20:40:04.380Z,0.90
2023-01-09T20:42:32.943Z,1.10
2023-01-09T20:45:02.909Z,0.97
2023-01-09T20:47:31.447Z,0.97
2023-01-09T20:49:59.934Z,1.10
2023-01-09T20:52:28.468Z,0.90
2023-01-09T20:54:57.071Z,0.77
2023-01-09T20:57:25.575Z,0.80
2023-01-09T20:59:54.183Z,1.00
2023-01-09T21:02:26.734Z,0.80
2023-01-09T21:04:55.524Z,0.80
2023-01-09T21:07:25.480Z,0.90
2023-01-09T21:09:54.020Z,0.70
2023-01-09T21:12:27.682Z,0.83
2023-01-09T21:14:56.326Z,0.80
2023-01-09T21:17:26.435Z,0.70
2023-01-09T21:19:54.919Z,0.70
2023-01-09T21:22:23.446Z,0.90
2023-01-09T21:24:52.645Z,0.70
2023-01-09T21:27:21.155Z,0.70
2023-01-09T21:29:49.732Z,0.93
2023-01-09T21:32:18.312Z,0.87
2023-01-09T21:34:48.170Z,0.90
2023-01-09T21:37:17.127Z,1.07
2023-01-09T21:39:45.917Z,0.70
2023-01-09T21:42:31.897Z,3.30
2023-01-09T21:45:17.857Z,4.40
2023-01-09T21:47:46.433Z,0.90
2023-01-09T21:50:17.492Z,0.90
2023-01-09T21:52:46.060Z,0.80
2023-01-09T21:55:14.722Z,2.77
2023-01-09T21:57:43.182Z,1.30
2023-01-09T22:00:12.354Z,0.90
2023-01-09T22:02:41.536Z,0.90
2023-01-09T22:05:10.129Z,1.37
2023-01-09T22:07:40.053Z,0.80
2023-01-09T22:10:09.249Z,3.40
2023-01-09T22:12:37.714Z,1.77
2023-01-09T22:15:06.741Z,2.20
2023-01-09T22:17:35.415Z,0.83
2023-01-09T22:20:03.941Z,1.20
2023-01-09T22:22:32.423Z,1.00
2023-01-09T22:25:03.758Z,1.13
2023-01-09T22:27:33.471Z,1.07
2023-01-09T22:30:02.065Z,1.13
2023-01-09T22:32:30.859Z,1.20
2023-01-09T22:34:59.327Z,1.33
2023-01-09T22:37:27.910Z,1.97
2023-01-09T22:39:56.489Z,1.40
2023-01-09T22:42:26.385Z,1.20
2023-01-09T22:44:54.976Z,2.23
2023-01-09T22:47:23.668Z,1.67
2023-01-09T22:49:53.468Z,1.43
2023-01-09T22:52:22.315Z,1.40
2023-01-09T22:54:50.913Z,1.50
2023-01-09T22:57:19.461Z,1.10
2023-01-09T22:59:49.331Z,3.50
2023-01-09T23:02:18.037Z,1.20
2023-01-09T23:04:46.786Z,2.77
2023-01-09T23:07:15.404Z,1.77
2023-01-09T23:09:44.210Z,1.90
2023-01-09T23:12:12.811Z,3.43
2023-01-09T23:14:41.414Z,1.57
2023-01-09T23:17:12.330Z,1.53
2023-01-09T23:19:40.916Z,6.77
2023-01-09T23:22:09.648Z,2.63
2023-01-09T23:24:38.273Z,1.50
2023-01-09T23:27:07.703Z,1.40
2023-01-09T23:29:38.516Z,2.93
2023-01-09T23:32:08.324Z,2.33
2023-01-09T23:34:38.366Z,5.00
2023-01-09T23:37:09.101Z,3.27
2023-01-09T23:39:37.842Z,1.57
2023-01-09T23:42:23.771Z,2.17
2023-01-09T23:44:52.493Z,1.40
2023-01-09T23:47:20.992Z,1.20
2023-01-09T23:49:50.885Z,1.40
2023-01-09T23:52:19.708Z,1.57
2023-01-09T23:54:48.174Z,1.50
2023-01-09T23:57:16.645Z,1.37
2023-01-09T23:59:45.264Z,1.43
